Time;durP1;ratioP1;P1;durP2;ratioP2;P2;SDS_P1;SDS_P2;PMS_P1;PMS_P2;Temp;Humidity;BMP_temperature;BMP_pressure;BME280_temperature;BME280_humidity;BME280_pressure;Samples;Min_cycle;Max_cycle;Signal;HPM_P1;HPM_P2
2023/01/22 00:01:02;;;;;;;89.25;24.67;;;;;;;-4.08;100.00;103253.91;5052355;28;20025;-56
2023/01/22 00:03:27;;;;;;;230.63;90.88;;;;;;;-4.06;100.00;103255.00;5052723;28;20020;-56
2023/01/22 00:05:53;;;;;;;237.15;95.80;;;;;;;-4.03;100.00;103255.41;5052892;28;20028;-56
2023/01/22 00:08:18;;;;;;;96.90;26.67;;;;;;;-3.97;100.00;103256.16;5052141;28;20472;-56
2023/01/22 00:10:51;;;;;;;109.88;25.98;;;;;;;-3.96;100.00;103254.56;5052398;28;20056;-56
2023/01/22 00:13:16;;;;;;;226.00;90.47;;;;;;;-4.09;100.00;103254.63;5052856;28;20048;-56
2023/01/22 00:15:42;;;;;;;105.32;26.85;;;;;;;-4.02;100.00;103259.72;5052215;28;20021;-56
2023/01/22 00:18:07;;;;;;;87.90;25.70;;;;;;;-4.02;100.00;103271.41;5052815;28;20024;-56
2023/01/22 00:20:32;;;;;;;226.18;92.13;;;;;;;-4.14;100.00;103265.72;5052370;28;20028;-56
2023/01/22 00:22:58;;;;;;;93.75;26.55;;;;;;;-4.06;100.00;103266.69;5052280;28;20033;-56
2023/01/22 00:25:23;;;;;;;231.77;94.60;;;;;;;-4.11;100.00;103261.06;5052525;28;20495;-56
2023/01/22 00:27:48;;;;;;;96.90;26.75;;;;;;;-4.06;100.00;103262.56;5052139;28;20033;-56
2023/01/22 00:30:14;;;;;;;239.88;95.45;;;;;;;-4.11;100.00;103250.09;5052394;28;20033;-56
2023/01/22 00:32:39;;;;;;;240.75;97.82;;;;;;;-4.12;100.00;103259.25;5052420;28;20021;-56
2023/01/22 00:35:04;;;;;;;240.48;97.57;;;;;;;-4.15;100.00;103253.84;5051707;28;20025;-56
2023/01/22 00:37:30;;;;;;;244.23;99.95;;;;;;;-4.15;100.00;103243.75;5055039;28;20035;-56
2023/01/22 00:39:55;;;;;;;240.50;94.40;;;;;;;-4.16;100.00;103244.47;5056672;28;20033;-56
2023/01/22 00:42:20;;;;;;;245.00;98.57;;;;;;;-4.18;100.00;103245.91;5055750;28;20078;-56
2023/01/22 00:44:46;;;;;;;249.38;99.25;;;;;;;-4.18;100.00;103244.28;5056194;28;20039;-56
2023/01/22 00:47:11;;;;;;;91.93;26.20;;;;;;;-4.12;100.00;103246.66;5056615;28;20064;-56
2023/01/22 00:49:36;;;;;;;97.63;24.67;;;;;;;-4.11;100.00;103243.44;5055437;28;20487;-56
2023/01/22 00:52:02;;;;;;;240.27;100.32;;;;;;;-4.19;100.00;103246.59;5056525;28;20025;-56
2023/01/22 00:54:28;;;;;;;237.35;99.45;;;;;;;-4.21;100.00;103245.50;5056559;28;20422;-56
2023/01/22 00:56:54;;;;;;;247.98;101.15;;;;;;;-4.23;100.00;103239.38;5055798;28;20067;-57
2023/01/22 00:59:19;;;;;;;94.63;26.52;;;;;;;-4.16;100.00;103246.97;5056427;28;20465;-56
2023/01/22 01:01:44;;;;;;;102.90;28.50;;;;;;;-4.18;100.00;103230.78;5056130;28;20029;-56
2023/01/22 01:04:09;;;;;;;103.28;28.83;;;;;;;-4.19;100.00;103231.50;5055514;28;20025;-56
2023/01/22 01:06:35;;;;;;;232.55;96.70;;;;;;;-4.27;100.00;103227.06;5056023;28;20434;-56
2023/01/22 01:09:00;;;;;;;225.77;96.57;;;;;;;-4.27;100.00;103224.56;5055940;28;20069;-56
2023/01/22 01:11:26;;;;;;;224.73;96.18;;;;;;;-4.30;100.00;103231.03;5055684;28;20025;-56
2023/01/22 01:13:52;;;;;;;84.10;24.25;;;;;;;-4.21;100.00;103227.88;5055980;28;20025;-56
2023/01/22 01:16:23;;;;;;;228.68;96.25;;;;;;;-4.28;100.00;103230.31;5055801;28;20025;-56
2023/01/22 01:18:48;;;;;;;224.65;93.95;;;;;;;-4.30;100.00;103230.09;5055072;28;20366;-56
2023/01/22 01:21:18;;;;;;;98.22;27.98;;;;;;;-4.22;100.00;103226.03;5055987;28;20028;-56
2023/01/22 01:23:44;;;;;;;218.93;93.32;;;;;;;-4.29;100.00;103221.84;5055185;28;20029;-56
2023/01/22 01:26:12;;;;;;;219.98;92.70;;;;;;;-4.27;100.00;103227.06;5055503;28;20078;-56
2023/01/22 01:28:38;;;;;;;216.55;89.85;;;;;;;-4.27;100.00;103232.09;5055727;28;20025;-56
2023/01/22 01:31:06;;;;;;;88.57;23.88;;;;;;;-4.20;100.00;103227.16;5055524;28;20033;-56
2023/01/22 01:33:31;;;;;;;208.20;89.85;;;;;;;-4.27;100.00;103222.03;5055013;28;20064;-56
2023/01/22 01:36:09;;;;;;;209.43;89.32;;;;;;;-4.30;100.00;103208.38;5055707;28;20083;-56
2023/01/22 01:38:35;;;;;;;83.97;26.08;;;;;;;-4.21;100.00;103212.75;5054496;28;20021;-56
2023/01/22 01:41:00;;;;;;;88.45;27.90;;;;;;;-4.19;100.00;103208.81;5055776;28;20036;-56
2023/01/22 01:43:26;;;;;;;199.18;86.38;;;;;;;-4.23;100.00;103202.50;5055775;28;20025;-56
2023/01/22 01:45:53;;;;;;;201.10;88.75;;;;;;;-4.25;100.00;103200.50;5054521;28;20496;-56
2023/01/22 01:48:27;;;;;;;196.20;87.30;;;;;;;-4.25;100.00;103196.34;5054204;28;20112;-56
2023/01/22 01:50:56;;;;;;;207.82;90.28;;;;;;;-4.22;100.00;103195.81;5055367;28;20423;-56
2023/01/22 01:53:22;;;;;;;79.55;21.83;;;;;;;-4.17;100.00;103185.66;5054768;28;20053;-56
2023/01/22 01:55:48;;;;;;;90.97;25.00;;;;;;;-4.16;100.00;103191.56;5055253;28;20056;-56
2023/01/22 01:58:20;;;;;;;187.52;86.30;;;;;;;-4.27;100.00;103177.63;5055229;28;20531;-56
2023/01/22 02:00:47;;;;;;;76.50;23.88;;;;;;;-4.20;100.00;103179.31;5054504;28;20372;-56
2023/01/22 02:03:12;;;;;;;199.80;88.37;;;;;;;-4.28;100.00;103174.94;5055139;28;20028;-56
2023/01/22 02:05:38;;;;;;;78.43;24.02;;;;;;;-4.22;100.00;103181.66;5054700;28;20028;-56
2023/01/22 02:08:04;;;;;;;182.73;80.50;;;;;;;-4.32;100.00;103183.69;5054634;28;20033;-56
2023/01/22 02:10:29;;;;;;;105.03;26.55;;;;;;;-4.24;100.00;103182.16;5054471;28;20127;-56
2023/01/22 02:12:59;;;;;;;180.95;80.18;;;;;;;-4.30;100.00;103175.63;5054636;28;20172;-56
2023/01/22 02:15:25;;;;;;;182.43;80.05;;;;;;;-4.36;100.00;103177.38;5054421;28;20021;-56
2023/01/22 02:17:50;;;;;;;179.23;83.20;;;;;;;-4.31;100.00;103166.28;5054518;28;20024;-56
2023/01/22 02:20:16;;;;;;;78.70;23.75;;;;;;;-4.26;100.00;103168.47;5054897;28;20021;-56
2023/01/22 02:22:41;;;;;;;170.90;80.15;;;;;;;-4.32;100.00;103168.59;5054237;28;20167;-56
2023/01/22 02:25:07;;;;;;;178.48;81.05;;;;;;;-4.30;100.00;103168.09;5054616;28;20118;-56
2023/01/22 02:27:33;;;;;;;180.43;81.00;;;;;;;-4.25;100.00;103163.63;5053765;28;20056;-56
2023/01/22 02:29:58;;;;;;;171.80;81.70;;;;;;;-4.20;100.00;103159.16;5054724;28;20056;-57
2023/01/22 02:32:23;;;;;;;179.93;79.97;;;;;;;-4.16;100.00;103161.34;5054612;28;20107;-57
2023/01/22 02:34:49;;;;;;;165.38;78.35;;;;;;;-4.11;100.00;103160.31;5053714;28;20029;-56
2023/01/22 02:37:14;;;;;;;165.00;79.63;;;;;;;-4.13;100.00;103174.34;5054361;28;20104;-56
2023/01/22 02:39:40;;;;;;;166.32;76.97;;;;;;;-4.11;100.00;103172.03;5054281;28;20031;-56
2023/01/22 02:42:06;;;;;;;77.68;21.63;;;;;;;-4.06;100.00;103176.91;5053798;28;20017;-56
2023/01/22 02:44:31;;;;;;;162.07;75.03;;;;;;;-4.04;100.00;103178.03;5054116;28;20036;-56
2023/01/22 02:46:56;;;;;;;160.70;77.00;;;;;;;-3.98;100.00;103182.91;5054388;28;20108;-56
2023/01/22 02:49:22;;;;;;;74.57;22.92;;;;;;;-3.93;100.00;103175.94;5053662;28;20021;-56
2023/01/22 02:51:47;;;;;;;191.70;86.43;;;;;;;-3.73;100.00;103164.22;5054085;28;20017;-56
2023/01/22 02:54:12;;;;;;;178.60;82.65;;;;;;;-3.62;100.00;103170.59;5054412;28;20025;-56
2023/01/22 02:56:38;;;;;;;180.27;85.78;;;;;;;-3.53;100.00;103176.75;5053267;28;20017;-56
2023/01/22 02:59:03;;;;;;;188.30;87.65;;;;;;;-3.45;100.00;103169.25;5053741;28;20358;-56
2023/01/22 03:01:29;;;;;;;181.88;87.80;;;;;;;-3.39;100.00;103175.97;5053512;28;20055;-56
2023/01/22 03:03:57;;;;;;;185.40;86.50;;;;;;;-3.35;100.00;103173.09;5053412;28;20071;-56
2023/01/22 03:06:24;;;;;;;180.95;85.35;;;;;;;-3.31;100.00;103170.22;5054014;28;20033;-56
2023/01/22 03:08:53;;;;;;;174.90;82.00;;;;;;;-3.27;100.00;103165.59;5053420;28;20044;-56
2023/01/22 03:11:18;;;;;;;82.97;24.15;;;;;;;-3.20;100.00;103168.13;5053473;28;20048;-56
2023/01/22 03:21:58;;;;;;;178.90;80.90;;;;;;;-3.17;100.00;103161.84;5054050;28;20044;-56
2023/01/22 03:24:23;;;;;;;160.10;77.43;;;;;;;-3.14;100.00;103163.84;5052713;28;20032;-56
2023/01/22 03:26:49;;;;;;;175.35;82.78;;;;;;;-3.12;100.00;103171.56;5053515;28;20028;-56
2023/01/22 03:29:14;;;;;;;162.82;80.38;;;;;;;-3.12;100.00;103171.56;5053745;28;20423;-56
2023/01/22 03:31:39;;;;;;;162.90;77.63;;;;;;;-3.11;100.00;103169.28;5052576;28;20039;-56
2023/01/22 03:34:04;;;;;;;162.40;78.22;;;;;;;-3.11;100.00;103171.78;5053575;28;20111;-56
2023/01/22 03:36:30;;;;;;;161.85;76.53;;;;;;;-3.10;100.00;103163.47;5052890;28;20053;-56
2023/01/22 03:38:55;;;;;;;158.82;77.03;;;;;;;-3.10;100.00;103149.97;5052796;28;20457;-56
2023/01/22 03:41:21;;;;;;;160.35;76.47;;;;;;;-3.10;100.00;103150.88;5053547;28;20029;-56
2023/01/22 03:43:46;;;;;;;155.05;76.22;;;;;;;-3.15;100.00;103147.81;5052917;28;20094;-56
2023/01/22 03:46:15;;;;;;;154.57;75.93;;;;;;;-3.20;100.00;103145.41;5052936;28;20071;-56
2023/01/22 03:48:41;;;;;;;77.65;23.92;;;;;;;-3.12;100.00;103138.78;5052948;28;20059;-56
2023/01/22 03:51:08;;;;;;;137.70;68.28;;;;;;;-3.37;100.00;103136.72;5052988;28;20068;-56
2023/01/22 03:53:34;;;;;;;140.45;71.97;;;;;;;-3.41;100.00;103139.56;5052271;28;20024;-56
2023/01/22 03:56:02;;;;;;;132.18;69.32;;;;;;;-3.51;100.00;103140.06;5053317;28;20361;-56
2023/01/22 03:58:29;;;;;;;136.25;68.93;;;;;;;-3.54;100.00;103144.75;5052333;28;20032;-56
2023/01/22 04:00:56;;;;;;;143.57;70.95;;;;;;;-3.62;100.00;103139.47;5052646;28;20029;-56
2023/01/22 04:03:23;;;;;;;134.48;68.07;;;;;;;-3.66;100.00;103136.53;5053043;28;20033;-56
2023/01/22 04:05:49;;;;;;;136.82;69.15;;;;;;;-3.65;100.00;103137.47;5052374;28;20119;-56
2023/01/22 04:08:14;;;;;;;151.40;74.93;;;;;;;-3.57;100.00;103139.28;5052293;28;20116;-56
2023/01/22 04:10:39;;;;;;;143.35;72.63;;;;;;;-3.55;100.00;103142.94;5052126;28;20045;-56
2023/01/22 04:13:04;;;;;;;153.32;75.55;;;;;;;-3.52;100.00;103142.41;5051727;28;20457;-56
2023/01/22 04:15:30;;;;;;;153.20;74.55;;;;;;;-3.50;100.00;103136.84;5052730;28;20059;-56
2023/01/22 04:17:55;;;;;;;160.45;77.35;;;;;;;-3.44;100.00;103134.16;5052706;28;20037;-56
2023/01/22 04:20:20;;;;;;;165.20;79.10;;;;;;;-3.39;100.00;103130.56;5051973;28;20037;-56
2023/01/22 04:22:46;;;;;;;68.00;23.30;;;;;;;-3.34;100.00;103142.13;5052472;28;20028;-56
2023/01/22 04:25:11;;;;;;;160.65;77.35;;;;;;;-3.24;100.00;103149.22;5052827;28;20036;-56
2023/01/22 04:27:36;;;;;;;172.35;78.75;;;;;;;-3.15;100.00;103131.75;5051824;28;20025;-56
2023/01/22 04:30:04;;;;;;;96.13;24.27;;;;;;;-3.08;100.00;103134.31;5053032;28;20386;-56
2023/01/22 04:32:29;;;;;;;161.10;74.88;;;;;;;-3.03;100.00;103133.25;5052279;28;20555;-56
2023/01/22 04:34:55;;;;;;;149.13;73.00;;;;;;;-2.96;100.00;103134.00;5052031;28;20140;-56
2023/01/22 04:37:20;;;;;;;145.73;70.90;;;;;;;-2.93;100.00;103125.19;5052561;28;20029;-56
2023/01/22 04:39:45;;;;;;;136.75;67.57;;;;;;;-2.93;100.00;103135.28;5052320;28;20021;-56
2023/01/22 04:42:10;;;;;;;135.45;68.10;;;;;;;-2.92;100.00;103138.69;5052174;28;20033;-56
2023/01/22 04:44:36;;;;;;;127.60;62.40;;;;;;;-2.93;100.00;103139.41;5052272;28;20033;-56
2023/01/22 04:47:01;;;;;;;127.30;65.00;;;;;;;-2.92;100.00;103126.06;5052336;28;20032;-56
2023/01/22 04:49:26;;;;;;;121.07;61.33;;;;;;;-2.94;100.00;103124.97;5052048;28;20029;-56
2023/01/22 04:51:52;;;;;;;123.43;64.50;;;;;;;-2.94;100.00;103130.03;5052358;28;20021;-56
2023/01/22 04:54:18;;;;;;;129.55;63.80;;;;;;;-2.93;100.00;103124.25;5052434;28;20029;-56
2023/01/22 04:56:43;;;;;;;66.85;22.55;;;;;;;-2.86;100.00;103129.34;5051793;28;20461;-56
2023/01/22 04:59:08;;;;;;;130.38;64.40;;;;;;;-2.91;100.00;103130.41;5052548;28;20025;-56
2023/01/22 05:01:34;;;;;;;122.90;62.40;;;;;;;-2.89;100.00;103131.47;5051912;28;20059;-56
2023/01/22 05:04:01;;;;;;;127.00;61.72;;;;;;;-2.89;100.00;103131.47;5051795;28;20052;-56
2023/01/22 05:06:26;;;;;;;121.50;61.33;;;;;;;-2.90;100.00;103130.59;5052308;28;20060;-57
2023/01/22 05:08:51;;;;;;;122.20;61.20;;;;;;;-2.88;100.00;103123.19;5051823;28;20303;-57
2023/01/22 05:11:17;;;;;;;62.78;19.80;;;;;;;-2.82;100.00;103129.00;5052098;28;20070;-57
2023/01/22 05:13:42;;;;;;;119.90;60.45;;;;;;;-2.85;100.00;103124.47;5051982;28;20388;-56
2023/01/22 05:16:07;;;;;;;70.03;21.30;;;;;;;-2.79;100.00;103124.31;5052187;28;20029;-56
2023/01/22 05:18:32;;;;;;;114.40;57.65;;;;;;;-2.83;100.00;103122.13;5051532;28;20021;-56
2023/01/22 05:20:58;;;;;;;117.25;58.75;;;;;;;-2.86;100.00;103122.66;5052182;28;20020;-57
2023/01/22 05:23:23;;;;;;;110.22;59.10;;;;;;;-2.88;100.00;103123.19;5053498;28;20025;-57
2023/01/22 05:25:49;;;;;;;120.22;60.00;;;;;;;-2.89;100.00;103126.44;5055675;28;20480;-57
2023/01/22 05:28:14;;;;;;;113.97;57.38;;;;;;;-2.91;100.00;103133.81;5055992;28;20086;-57
2023/01/22 05:30:40;;;;;;;123.10;59.85;;;;;;;-2.91;100.00;103132.94;5054713;28;20025;-57
2023/01/22 05:33:05;;;;;;;111.18;57.45;;;;;;;-2.89;100.00;103129.88;5055718;28;20025;-56
2023/01/22 05:35:30;;;;;;;120.50;61.15;;;;;;;-2.86;100.00;103136.91;5055452;28;20071;-56
2023/01/22 05:37:55;;;;;;;112.97;58.05;;;;;;;-2.85;100.00;103138.72;5054931;28;20025;-57
2023/01/22 05:40:21;;;;;;;70.30;21.70;;;;;;;-2.78;100.00;103141.25;5055848;28;20031;-57
2023/01/22 05:42:46;;;;;;;114.85;58.63;;;;;;;-2.79;100.00;103141.09;5055421;28;20031;-57
2023/01/22 05:45:11;;;;;;;130.63;62.60;;;;;;;-2.79;100.00;103149.53;5054602;28;20090;-57
2023/01/22 05:47:37;;;;;;;112.85;58.40;;;;;;;-2.78;100.00;103143.78;5055222;28;20028;-56
2023/01/22 05:50:02;;;;;;;121.88;59.72;;;;;;;-2.75;100.00;103155.88;5055404;28;20104;-57
2023/01/22 05:52:28;;;;;;;119.85;61.92;;;;;;;-2.74;100.00;103156.03;5054637;28;20094;-56
2023/01/22 05:54:53;;;;;;;111.32;57.03;;;;;;;-2.73;100.00;103160.38;5055608;28;20060;-57
2023/01/22 05:57:18;;;;;;;119.28;60.10;;;;;;;-2.72;100.00;103158.78;5055248;28;20063;-56
2023/01/22 05:59:44;;;;;;;65.20;21.30;;;;;;;-2.66;100.00;103162.00;5054692;28;20029;-56
2023/01/22 06:02:09;;;;;;;113.07;58.85;;;;;;;-2.70;100.00;103147.22;5055328;28;20032;-56
2023/01/22 06:04:34;;;;;;;115.07;59.28;;;;;;;-2.70;100.00;103155.72;5054708;28;20472;-56
2023/01/22 06:07:00;;;;;;;119.53;59.92;;;;;;;-2.68;100.00;103156.78;5054524;28;20025;-57
2023/01/22 06:09:25;;;;;;;121.80;60.70;;;;;;;-2.69;100.00;103157.50;5055033;28;20114;-57
2023/01/22 06:11:50;;;;;;;127.28;61.35;;;;;;;-2.68;100.00;103166.88;5054769;28;20052;-56
2023/01/22 06:14:15;;;;;;;67.78;20.80;;;;;;;-2.60;100.00;103162.75;5054414;28;20511;-56
2023/01/22 06:16:41;;;;;;;121.97;60.10;;;;;;;-2.65;100.00;103154.66;5054617;28;20025;-56
2023/01/22 06:19:06;;;;;;;114.65;58.75;;;;;;;-2.65;100.00;103144.56;5054649;28;20031;-57
2023/01/22 06:21:31;;;;;;;121.35;61.10;;;;;;;-2.65;100.00;103142.03;5053972;28;20025;-57
2023/01/22 06:23:57;;;;;;;123.18;62.38;;;;;;;-2.64;100.00;103150.50;5054945;28;20021;-56
2023/01/22 06:26:22;;;;;;;118.22;60.88;;;;;;;-2.62;100.00;103158.25;5054582;28;20483;-56
2023/01/22 06:28:47;;;;;;;124.63;60.13;;;;;;;-2.62;100.00;103168.34;5054165;28;20495;-57
2023/01/22 06:31:13;;;;;;;114.07;58.60;;;;;;;-2.61;100.00;103166.00;5054951;28;20025;-56
2023/01/22 06:33:40;;;;;;;66.25;21.85;;;;;;;-2.56;100.00;103162.41;5053731;28;20064;-57
2023/01/22 06:36:05;;;;;;;124.40;62.13;;;;;;;-2.59;100.00;103161.16;5054074;28;20017;-57
2023/01/22 06:38:31;;;;;;;129.05;61.08;;;;;;;-2.59;100.00;103162.03;5054460;28;20083;-56
2023/01/22 06:40:58;;;;;;;119.45;61.58;;;;;;;-2.58;100.00;103155.38;5053738;28;20086;-57
2023/01/22 06:43:25;;;;;;;124.40;63.27;;;;;;;-2.58;100.00;103156.28;5054620;28;20025;-57
2023/01/22 06:45:51;;;;;;;123.78;61.45;;;;;;;-2.58;100.00;103156.28;5054147;28;20111;-57
2023/01/22 06:48:16;;;;;;;126.82;61.17;;;;;;;-2.57;100.00;103152.13;5053657;28;20028;-56
2023/01/22 06:50:42;;;;;;;64.32;18.58;;;;;;;-2.51;100.00;103163.84;5053989;28;20379;-57
2023/01/22 06:53:07;;;;;;;114.75;57.45;;;;;;;-2.54;100.00;103167.66;5054244;28;20036;-56
2023/01/22 06:55:33;;;;;;;122.45;61.17;;;;;;;-2.54;100.00;103167.66;5053562;28;20067;-57
2023/01/22 06:57:58;;;;;;;61.42;17.40;;;;;;;-2.47;100.00;103180.28;5054249;28;20021;-56
2023/01/22 07:00:24;;;;;;;122.10;58.70;;;;;;;-2.54;100.00;103167.66;5054003;28;20021;-57
2023/01/22 07:02:49;;;;;;;120.97;58.38;;;;;;;-2.52;100.00;103166.19;5053198;28;20468;-57
2023/01/22 07:05:15;;;;;;;118.03;58.67;;;;;;;-2.52;100.00;103167.13;5053837;28;20032;-56
2023/01/22 07:07:41;;;;;;;120.05;56.53;;;;;;;-2.50;100.00;103169.81;5053658;28;20020;-56
2023/01/22 07:10:08;;;;;;;117.95;60.00;;;;;;;-2.51;100.00;103168.00;5053265;28;20045;-56
2023/01/22 07:12:34;;;;;;;120.57;61.43;;;;;;;-2.50;100.00;103175.75;5053543;28;20116;-56
2023/01/22 07:14:59;;;;;;;122.88;59.75;;;;;;;-2.49;100.00;103176.69;5053752;28;20068;-56
2023/01/22 07:17:24;;;;;;;116.03;58.70;;;;;;;-2.49;100.00;103172.53;5053311;28;20490;-57
2023/01/22 07:19:50;;;;;;;58.42;19.27;;;;;;;-2.42;100.00;103169.09;5053466;28;20021;-57
2023/01/22 07:22:15;;;;;;;116.20;58.28;;;;;;;-2.48;100.00;103163.31;5053594;28;20078;-57
2023/01/22 07:24:40;;;;;;;115.00;57.83;;;;;;;-2.48;100.00;103168.38;5052838;28;20070;-57
2023/01/22 07:27:06;;;;;;;61.45;19.40;;;;;;;-2.40;100.00;103177.78;5053735;28;20400;-56
2023/01/22 07:29:31;;;;;;;119.68;57.53;;;;;;;-2.45;100.00;103168.75;5053049;28;20025;-56
2023/01/22 07:31:56;;;;;;;116.18;58.22;;;;;;;-2.46;100.00;103169.47;5052933;28;20048;-57
2023/01/22 07:34:22;;;;;;;113.90;58.95;;;;;;;-2.44;100.00;103175.63;5053351;28;20028;-57
2023/01/22 07:36:47;;;;;;;115.35;57.38;;;;;;;-2.44;100.00;103173.09;5053011;28;20108;-56
2023/01/22 07:39:13;;;;;;;112.22;56.08;;;;;;;-2.42;100.00;103166.59;5052906;28;20469;-56
2023/01/22 07:41:38;;;;;;;125.72;59.17;;;;;;;-2.41;100.00;103178.50;5053246;28;20048;-56
2023/01/22 07:44:06;;;;;;;126.97;62.15;;;;;;;-2.40;100.00;103172.72;5052624;28;20483;-57
2023/01/22 07:46:33;;;;;;;110.30;59.25;;;;;;;-2.39;100.00;103184.66;5052104;28;20039;-56
2023/01/22 07:48:59;;;;;;;119.38;59.92;;;;;;;-2.37;100.00;103177.25;5053103;28;20039;-56
2023/01/22 07:51:24;;;;;;;111.03;58.95;;;;;;;-2.38;100.00;103181.38;5052573;28;20025;-56
2023/01/22 07:53:49;;;;;;;109.70;57.92;;;;;;;-2.36;100.00;103179.94;5053007;28;20388;-56
2023/01/22 07:56:16;;;;;;;109.90;56.28;;;;;;;-2.35;100.00;103185.88;5052779;28;20182;-56
2023/01/22 07:58:42;;;;;;;48.20;17.83;;;;;;;-2.29;100.00;103185.75;5052436;28;20032;-56
2023/01/22 08:01:07;;;;;;;118.72;58.25;;;;;;;-2.32;100.00;103189.69;5052876;28;20025;-56
2023/01/22 08:03:33;;;;;;;122.45;61.30;;;;;;;-2.30;100.00;103191.50;5052375;28;20055;-56
2023/01/22 08:05:59;;;;;;;109.65;56.90;;;;;;;-2.28;100.00;103190.06;5052624;28;20025;-56
2023/01/22 08:08:24;;;;;;;102.25;54.90;;;;;;;-2.25;100.00;103192.97;5053053;28;20021;-56
2023/01/22 08:10:49;;;;;;;80.15;22.33;;;;;;;-2.19;100.00;103191.16;5052213;28;20094;-56
2023/01/22 08:13:15;;;;;;;111.30;55.45;;;;;;;-2.18;100.00;103185.41;5052384;28;20100;-56
2023/01/22 08:15:41;;;;;;;106.60;54.92;;;;;;;-2.17;100.00;103197.28;5052549;28;20372;-56
2023/01/22 08:18:09;;;;;;;103.68;53.95;;;;;;;-2.12;100.00;103190.25;5052542;28;20151;-56
2023/01/22 08:20:34;;;;;;;;;;;;;;;-2.04;100.00;103189.53;5052560;28;20029;-56
2023/01/22 08:23:00;;;;;;;100.27;52.10;;;;;;;-2.06;100.00;103185.94;5053202;28;19913;-57
2023/01/22 08:25:27;;;;;;;97.88;51.28;;;;;;;-2.04;100.00;103200.56;5052352;28;20634;-56
2023/01/22 08:27:52;;;;;;;104.50;53.92;;;;;;;-2.04;100.00;103203.09;5051958;28;20036;-56
2023/01/22 08:30:17;;;;;;;93.10;50.05;;;;;;;-2.04;100.00;103203.09;5052836;28;20033;-56
2023/01/22 08:32:44;;;;;;;92.72;49.58;;;;;;;-2.04;100.00;103205.63;5052050;28;20103;-56
2023/01/22 08:35:10;;;;;;;95.03;50.77;;;;;;;-2.03;100.00;103207.44;5052440;28;20029;-56
2023/01/22 08:37:36;;;;;;;56.03;16.83;;;;;;;-1.95;100.00;103215.00;5052536;28;20278;-56
2023/01/22 08:40:01;;;;;;;98.82;50.85;;;;;;;-2.00;100.00;103204.38;5052456;28;20388;-56
2023/01/22 08:42:26;;;;;;;96.43;49.22;;;;;;;-2.02;100.00;103208.31;5052179;28;20472;-57
2023/01/22 08:44:51;;;;;;;90.93;47.45;;;;;;;-2.01;100.00;103202.56;5052175;28;20033;-56
2023/01/22 08:47:17;;;;;;;95.75;50.00;;;;;;;-1.99;100.00;103204.53;5051803;28;20043;-56
2023/01/22 08:49:42;;;;;;;93.30;48.72;;;;;;;-1.96;100.00;103198.94;5052367;28;20021;-57
2023/01/22 08:52:08;;;;;;;96.70;47.22;;;;;;;-1.94;100.00;103206.69;5052393;28;20017;-57
2023/01/22 08:54:33;;;;;;;86.07;45.92;;;;;;;-1.94;100.00;103202.53;5051446;28;20468;-57
2023/01/22 08:56:59;;;;;;;53.38;16.23;;;;;;;-1.86;100.00;103211.03;5052390;28;20461;-56
2023/01/22 08:59:24;;;;;;;84.57;44.25;;;;;;;-1.91;100.00;103207.03;5056235;28;20024;-56
2023/01/22 09:01:49;;;;;;;79.20;43.17;;;;;;;-1.91;100.00;103202.91;5055378;28;20037;-56
2023/01/22 09:04:15;;;;;;;85.63;44.40;;;;;;;-1.90;100.00;103204.72;5056110;28;20033;-56
2023/01/22 09:06:40;;;;;;;78.03;44.15;;;;;;;-1.92;100.00;103205.28;5055817;28;20484;-56
2023/01/22 09:09:06;;;;;;;80.95;44.38;;;;;;;-1.92;100.00;103205.28;5055608;28;20098;-56
2023/01/22 09:11:31;;;;;;;84.82;46.42;;;;;;;-1.93;100.00;103204.34;5055924;28;20475;-56
2023/01/22 09:13:58;;;;;;;80.90;45.15;;;;;;;-1.92;100.00;103207.78;5055800;28;20029;-56
2023/01/22 09:16:24;;;;;;;84.07;44.40;;;;;;;-1.89;100.00;103206.50;5055481;28;20460;-56
2023/01/22 09:18:50;;;;;;;82.28;43.97;;;;;;;-1.86;100.00;103204.38;5055678;28;20622;-57
2023/01/22 09:21:15;;;;;;;88.55;44.50;;;;;;;-1.85;100.00;103203.66;5055589;28;20108;-57
2023/01/22 09:23:41;;;;;;;82.57;43.72;;;;;;;-1.82;100.00;103211.56;5055343;28;20071;-56
2023/01/22 09:26:06;;;;;;;51.28;16.17;;;;;;;-1.74;100.00;103216.59;5055742;28;20159;-57
2023/01/22 09:28:32;;;;;;;78.40;43.42;;;;;;;-1.78;100.00;103210.31;5055367;28;20020;-57
2023/01/22 09:30:57;;;;;;;43.70;14.02;;;;;;;-1.71;100.00;103211.94;5055271;28;20021;-56
2023/01/22 09:33:23;;;;;;;76.22;41.58;;;;;;;-1.74;100.00;103217.53;5055706;28;20029;-56
2023/01/22 09:35:48;;;;;;;73.75;42.17;;;;;;;-1.71;100.00;103214.47;5055161;28;20029;-57
2023/01/22 09:38:14;;;;;;;34.28;13.10;;;;;;;-1.64;100.00;103218.59;5055215;28;20405;-57
2023/01/22 09:40:56;;;;;;;78.68;41.50;;;;;;;-1.66;100.00;103226.03;5055200;28;20025;-56
2023/01/22 09:43:27;;;;;;;74.07;40.85;;;;;;;-1.56;100.00;103217.88;5055502;28;20029;-56
2023/01/22 09:45:56;;;;;;;71.93;40.72;;;;;;;-1.41;100.00;103227.25;5055130;28;20035;-56
2023/01/22 09:48:27;;;;;;;76.18;40.15;;;;;;;-1.32;100.00;103224.88;5055367;28;20499;-56
2023/01/22 09:50:52;;;;;;;67.47;38.97;;;;;;;-1.27;100.00;103227.97;5055138;28;20021;-57
2023/01/22 09:53:20;;;;;;;67.63;39.03;;;;;;;-1.26;100.00;103232.31;5055539;28;20443;-57
2023/01/22 09:55:48;;;;;;;77.97;42.45;;;;;;;-1.33;100.00;103229.06;5054948;28;20048;-57
2023/01/22 09:58:17;;;;;;;65.38;38.08;;;;;;;-1.35;100.00;103227.06;5054874;28;20032;-57
2023/01/22 10:01:09;;;;;;;71.63;41.95;;;;;;;-1.30;100.00;103228.50;5055068;28;20036;-56
2023/01/22 10:03:45;;;;;;;76.60;44.17;;;;;;;-1.27;100.00;103225.44;5053387;28;20393;-56
2023/01/22 10:06:22;;;;;;;65.15;38.67;;;;;;;-1.29;100.00;103224.34;5054517;28;20112;-57
2023/01/22 10:08:57;;;;;;;64.83;40.43;;;;;;;-1.25;100.00;103223.97;5053858;28;20061;-57
2023/01/22 10:11:22;;;;;;;64.95;37.95;;;;;;;-1.24;100.00;103224.16;5054924;28;20388;-57
2023/01/22 10:13:52;;;;;;;59.17;37.95;;;;;;;-1.23;100.00;103225.94;5054223;28;20476;-57
2023/01/22 10:16:17;;;;;;;68.05;39.08;;;;;;;-1.21;100.00;103236.25;5055051;28;20039;-57
2023/01/22 10:19:01;;;;;;;37.08;12.82;;;;;;;-1.10;100.00;103235.84;5054177;28;20025;-57
2023/01/22 10:21:30;;;;;;;66.38;38.88;;;;;;;-1.23;100.00;103235.16;5054758;28;20534;-57
2023/01/22 10:23:57;;;;;;;68.03;37.92;;;;;;;-1.30;100.00;103233.56;5054961;28;20136;-57
2023/01/22 10:26:43;;;;;;;66.13;36.78;;;;;;;-1.30;100.00;103233.56;5054228;28;20060;-57
2023/01/22 10:29:21;;;;;;;62.30;37.22;;;;;;;-1.32;100.00;103242.59;5054729;28;20051;-57
2023/01/22 10:31:51;;;;;;;62.15;35.78;;;;;;;-1.32;100.00;103219.81;5054406;28;20059;-57
2023/01/22 10:34:22;;;;;;;61.53;38.63;;;;;;;-1.29;100.00;103224.34;5054592;28;20017;-57
2023/01/22 10:36:50;;;;;;;57.03;36.05;;;;;;;-1.28;100.00;103223.63;5054382;28;20056;-57
2023/01/22 10:39:16;;;;;;;61.17;35.88;;;;;;;-1.25;100.00;103218.91;5054324;28;20025;-57
2023/01/22 10:41:45;;;;;;;62.72;37.33;;;;;;;-1.24;100.00;103226.69;5053656;28;20053;-57
2023/01/22 10:44:19;;;;;;;71.50;42.65;;;;;;;-1.23;100.00;103225.06;5054450;28;20033;-57
2023/01/22 10:46:45;;;;;;;62.88;37.53;;;;;;;-1.24;100.00;103233.34;5054086;28;20056;-57
2023/01/22 10:49:17;;;;;;;63.83;37.85;;;;;;;-1.25;100.00;103236.59;5053776;28;20107;-57
2023/01/22 10:51:49;;;;;;;59.22;35.70;;;;;;;-1.27;100.00;103231.38;5053794;28;20032;-57
2023/01/22 10:54:32;;;;;;;58.03;36.00;;;;;;;-1.25;100.00;103237.53;5053717;28;20377;-57
2023/01/22 10:57:13;;;;;;;57.55;35.42;;;;;;;-1.26;100.00;103235.72;5054397;28;20029;-57
2023/01/22 10:59:38;;;;;;;59.20;35.60;;;;;;;-1.27;100.00;103233.03;5053756;28;20071;-57
2023/01/22 11:02:20;;;;;;;58.53;36.63;;;;;;;-1.26;100.00;103237.34;5053665;28;20021;-57